sensor_id;sensor_type;location;lat;lon;timestamp;temperature;humidity
53962;DHT22;39868;53.398;6.564;2023-04-03T00:00:07;6.40;62.20
53962;DHT22;39868;53.398;6.564;2023-04-03T00:02:35;6.40;62.20
53962;DHT22;39868;53.398;6.564;2023-04-03T00:05:02;6.30;62.10
53962;DHT22;39868;53.398;6.564;2023-04-03T00:07:31;6.30;62.20
53962;DHT22;39868;53.398;6.564;2023-04-03T00:09:58;6.30;62.20
53962;DHT22;39868;53.398;6.564;2023-04-03T00:12:25;6.30;62.20
53962;DHT22;39868;53.398;6.564;2023-04-03T00:14:53;6.30;62.20
53962;DHT22;39868;53.398;6.564;2023-04-03T00:17:20;6.20;62.20
53962;DHT22;39868;53.398;6.564;2023-04-03T00:19:47;6.30;62.20
53962;DHT22;39868;53.398;6.564;2023-04-03T00:22:14;6.30;62.20
53962;DHT22;39868;53.398;6.564;2023-04-03T00:24:41;6.20;62.20
53962;DHT22;39868;53.398;6.564;2023-04-03T00:27:09;6.20;62.20
53962;DHT22;39868;53.398;6.564;2023-04-03T00:29:36;6.20;62.20
53962;DHT22;39868;53.398;6.564;2023-04-03T00:32:03;6.20;62.20
53962;DHT22;39868;53.398;6.564;2023-04-03T00:34:30;6.10;62.20
53962;DHT22;39868;53.398;6.564;2023-04-03T00:36:57;6.10;62.20
53962;DHT22;39868;53.398;6.564;2023-04-03T00:39:25;6.10;62.30
53962;DHT22;39868;53.398;6.564;2023-04-03T00:41:52;6.10;62.30
53962;DHT22;39868;53.398;6.564;2023-04-03T00:47:02;6.00;62.30
53962;DHT22;39868;53.398;6.564;2023-04-03T00:49:31;6.00;62.30
53962;DHT22;39868;53.398;6.564;2023-04-03T00:51:58;6.00;62.40
53962;DHT22;39868;53.398;6.564;2023-04-03T00:54:26;5.90;62.30
53962;DHT22;39868;53.398;6.564;2023-04-03T00:56:54;5.90;62.30
53962;DHT22;39868;53.398;6.564;2023-04-03T00:59:24;5.90;62.40
53962;DHT22;39868;53.398;6.564;2023-04-03T01:01:53;5.90;63.00
53962;DHT22;39868;53.398;6.564;2023-04-03T01:04:32;5.80;62.40
53962;DHT22;39868;53.398;6.564;2023-04-03T01:07:08;5.80;62.40
53962;DHT22;39868;53.398;6.564;2023-04-03T01:09:36;5.80;62.40
53962;DHT22;39868;53.398;6.564;2023-04-03T01:14:40;5.70;62.50
53962;DHT22;39868;53.398;6.564;2023-04-03T01:22:44;5.70;62.50
53962;DHT22;39868;53.398;6.564;2023-04-03T01:25:15;5.60;62.50
53962;DHT22;39868;53.398;6.564;2023-04-03T01:27:42;5.60;62.60
53962;DHT22;39868;53.398;6.564;2023-04-03T01:30:10;5.60;62.60
53962;DHT22;39868;53.398;6.564;2023-04-03T01:32:37;5.50;62.60
53962;DHT22;39868;53.398;6.564;2023-04-03T01:35:06;5.50;62.70
53962;DHT22;39868;53.398;6.564;2023-04-03T01:37:34;5.50;62.70
53962;DHT22;39868;53.398;6.564;2023-04-03T01:40:02;5.50;62.80
53962;DHT22;39868;53.398;6.564;2023-04-03T01:42:29;5.40;62.70
53962;DHT22;39868;53.398;6.564;2023-04-03T01:44:56;5.40;62.80
53962;DHT22;39868;53.398;6.564;2023-04-03T01:47:24;5.40;62.80
53962;DHT22;39868;53.398;6.564;2023-04-03T01:49:51;5.40;62.90
53962;DHT22;39868;53.398;6.564;2023-04-03T01:52:18;5.30;62.90
53962;DHT22;39868;53.398;6.564;2023-04-03T01:54:46;5.30;62.90
53962;DHT22;39868;53.398;6.564;2023-04-03T01:57:13;5.30;62.90
53962;DHT22;39868;53.398;6.564;2023-04-03T01:59:42;5.30;63.00
53962;DHT22;39868;53.398;6.564;2023-04-03T02:02:09;5.30;63.00
53962;DHT22;39868;53.398;6.564;2023-04-03T02:04:39;5.20;63.00
53962;DHT22;39868;53.398;6.564;2023-04-03T02:07:06;5.20;63.00
53962;DHT22;39868;53.398;6.564;2023-04-03T02:09:33;5.20;63.10
53962;DHT22;39868;53.398;6.564;2023-04-03T02:12:00;5.20;63.10
53962;DHT22;39868;53.398;6.564;2023-04-03T02:14:29;5.20;63.10
53962;DHT22;39868;53.398;6.564;2023-04-03T02:16:57;5.10;63.10
53962;DHT22;39868;53.398;6.564;2023-04-03T02:19:24;5.10;63.10
53962;DHT22;39868;53.398;6.564;2023-04-03T02:21:51;5.10;63.20
53962;DHT22;39868;53.398;6.564;2023-04-03T02:24:18;5.10;63.20
53962;DHT22;39868;53.398;6.564;2023-04-03T02:26:45;5.10;63.30
53962;DHT22;39868;53.398;6.564;2023-04-03T02:29:13;5.10;63.30
53962;DHT22;39868;53.398;6.564;2023-04-03T02:31:40;5.00;63.30
53962;DHT22;39868;53.398;6.564;2023-04-03T02:34:07;5.00;63.30
53962;DHT22;39868;53.398;6.564;2023-04-03T02:36:35;5.00;63.40
53962;DHT22;39868;53.398;6.564;2023-04-03T02:39:06;5.00;63.40
53962;DHT22;39868;53.398;6.564;2023-04-03T02:41:34;4.90;63.40
53962;DHT22;39868;53.398;6.564;2023-04-03T02:44:09;4.90;63.50
53962;DHT22;39868;53.398;6.564;2023-04-03T02:46:36;4.80;63.50
53962;DHT22;39868;53.398;6.564;2023-04-03T02:49:04;4.80;63.50
53962;DHT22;39868;53.398;6.564;2023-04-03T02:51:31;4.80;63.60
53962;DHT22;39868;53.398;6.564;2023-04-03T02:53:59;4.80;63.60
53962;DHT22;39868;53.398;6.564;2023-04-03T02:56:30;4.80;63.60
53962;DHT22;39868;53.398;6.564;2023-04-03T02:58:57;4.80;63.60
53962;DHT22;39868;53.398;6.564;2023-04-03T03:01:25;4.70;63.60
53962;DHT22;39868;53.398;6.564;2023-04-03T03:03:55;4.70;63.60
53962;DHT22;39868;53.398;6.564;2023-04-03T03:06:22;4.70;63.60
53962;DHT22;39868;53.398;6.564;2023-04-03T03:08:50;4.70;63.70
53962;DHT22;39868;53.398;6.564;2023-04-03T03:11:17;4.60;63.70
53962;DHT22;39868;53.398;6.564;2023-04-03T03:13:44;4.60;63.70
53962;DHT22;39868;53.398;6.564;2023-04-03T03:16:12;4.60;63.70
53962;DHT22;39868;53.398;6.564;2023-04-03T03:18:39;4.60;63.70
53962;DHT22;39868;53.398;6.564;2023-04-03T03:21:06;4.60;63.70
53962;DHT22;39868;53.398;6.564;2023-04-03T03:23:34;4.50;63.70
53962;DHT22;39868;53.398;6.564;2023-04-03T03:26:03;4.50;63.70
53962;DHT22;39868;53.398;6.564;2023-04-03T03:28:33;4.40;63.70
53962;DHT22;39868;53.398;6.564;2023-04-03T03:31:01;4.40;63.70
53962;DHT22;39868;53.398;6.564;2023-04-03T03:33:29;4.40;63.70
53962;DHT22;39868;53.398;6.564;2023-04-03T03:35:56;4.30;63.70
53962;DHT22;39868;53.398;6.564;2023-04-03T03:38:24;4.30;63.70
53962;DHT22;39868;53.398;6.564;2023-04-03T03:40:52;4.20;63.70
53962;DHT22;39868;53.398;6.564;2023-04-03T03:43:20;4.20;63.80
53962;DHT22;39868;53.398;6.564;2023-04-03T03:45:50;4.10;63.70
53962;DHT22;39868;53.398;6.564;2023-04-03T03:48:17;4.10;63.80
53962;DHT22;39868;53.398;6.564;2023-04-03T03:50:45;4.10;63.90
53962;DHT22;39868;53.398;6.564;2023-04-03T03:53:12;4.00;64.00
53962;DHT22;39868;53.398;6.564;2023-04-03T03:55:40;4.00;64.00
53962;DHT22;39868;53.398;6.564;2023-04-03T03:58:07;3.90;64.10
53962;DHT22;39868;53.398;6.564;2023-04-03T04:00:36;3.90;64.20
53962;DHT22;39868;53.398;6.564;2023-04-03T04:03:03;3.90;64.30
53962;DHT22;39868;53.398;6.564;2023-04-03T04:05:31;3.90;64.30
53962;DHT22;39868;53.398;6.564;2023-04-03T04:08:00;3.80;64.30
53962;DHT22;39868;53.398;6.564;2023-04-03T04:10:27;3.80;64.30
53962;DHT22;39868;53.398;6.564;2023-04-03T04:12:55;3.80;64.40
53962;DHT22;39868;53.398;6.564;2023-04-03T04:15:26;3.80;64.40
53962;DHT22;39868;53.398;6.564;2023-04-03T04:17:55;3.80;64.50
53962;DHT22;39868;53.398;6.564;2023-04-03T04:20:24;3.70;64.50
53962;DHT22;39868;53.398;6.564;2023-04-03T04:22:52;3.70;64.50
53962;DHT22;39868;53.398;6.564;2023-04-03T04:25:21;3.70;64.60
53962;DHT22;39868;53.398;6.564;2023-04-03T04:27:48;3.70;64.70
53962;DHT22;39868;53.398;6.564;2023-04-03T04:30:16;3.60;64.70
53962;DHT22;39868;53.398;6.564;2023-04-03T04:32:47;3.60;64.70
53962;DHT22;39868;53.398;6.564;2023-04-03T04:35:14;3.60;64.70
53962;DHT22;39868;53.398;6.564;2023-04-03T04:37:45;3.60;64.70
53962;DHT22;39868;53.398;6.564;2023-04-03T04:40:13;3.60;64.80
53962;DHT22;39868;53.398;6.564;2023-04-03T04:42:40;3.60;64.80
53962;DHT22;39868;53.398;6.564;2023-04-03T04:45:08;3.60;64.80
53962;DHT22;39868;53.398;6.564;2023-04-03T04:47:36;3.50;64.80
53962;DHT22;39868;53.398;6.564;2023-04-03T04:50:04;3.50;64.80
53962;DHT22;39868;53.398;6.564;2023-04-03T04:52:32;3.50;64.90
53962;DHT22;39868;53.398;6.564;2023-04-03T04:54:59;3.50;64.90
53962;DHT22;39868;53.398;6.564;2023-04-03T04:57:27;3.50;65.00
53962;DHT22;39868;53.398;6.564;2023-04-03T04:59:56;3.50;65.00
53962;DHT22;39868;53.398;6.564;2023-04-03T05:02:23;3.40;65.00
53962;DHT22;39868;53.398;6.564;2023-04-03T05:04:51;3.40;65.10
53962;DHT22;39868;53.398;6.564;2023-04-03T05:07:23;3.40;65.10
53962;DHT22;39868;53.398;6.564;2023-04-03T05:09:51;3.40;65.10
53962;DHT22;39868;53.398;6.564;2023-04-03T05:12:18;3.40;65.20
53962;DHT22;39868;53.398;6.564;2023-04-03T05:14:52;3.30;65.10
53962;DHT22;39868;53.398;6.564;2023-04-03T05:17:19;3.30;65.20
53962;DHT22;39868;53.398;6.564;2023-04-03T05:19:50;3.30;65.20
53962;DHT22;39868;53.398;6.564;2023-04-03T05:22:20;3.30;65.20
53962;DHT22;39868;53.398;6.564;2023-04-03T05:24:48;3.30;65.30
53962;DHT22;39868;53.398;6.564;2023-04-03T05:27:16;3.30;65.30
53962;DHT22;39868;53.398;6.564;2023-04-03T05:29:49;3.30;65.30
53962;DHT22;39868;53.398;6.564;2023-04-03T05:32:20;3.20;65.40
53962;DHT22;39868;53.398;6.564;2023-04-03T05:34:52;3.30;65.50
53962;DHT22;39868;53.398;6.564;2023-04-03T05:37:19;3.30;65.60
53962;DHT22;39868;53.398;6.564;2023-04-03T05:39:49;3.30;65.70
53962;DHT22;39868;53.398;6.564;2023-04-03T05:42:16;3.30;65.70
53962;DHT22;39868;53.398;6.564;2023-04-03T05:44:44;3.40;65.90
53962;DHT22;39868;53.398;6.564;2023-04-03T05:47:14;3.40;65.90
53962;DHT22;39868;53.398;6.564;2023-04-03T05:49:41;3.50;66.10
53962;DHT22;39868;53.398;6.564;2023-04-03T05:52:18;3.50;66.20
53962;DHT22;39868;53.398;6.564;2023-04-03T05:54:47;3.50;66.20
53962;DHT22;39868;53.398;6.564;2023-04-03T05:57:20;3.60;66.30
53962;DHT22;39868;53.398;6.564;2023-04-03T05:59:48;3.60;66.40
53962;DHT22;39868;53.398;6.564;2023-04-03T06:02:17;3.70;66.50
53962;DHT22;39868;53.398;6.564;2023-04-03T06:04:46;3.80;66.60
53962;DHT22;39868;53.398;6.564;2023-04-03T06:07:15;3.80;66.60
53962;DHT22;39868;53.398;6.564;2023-04-03T06:09:43;3.90;66.70
53962;DHT22;39868;53.398;6.564;2023-04-03T06:12:10;4.00;66.70
53962;DHT22;39868;53.398;6.564;2023-04-03T06:14:38;4.10;66.80
53962;DHT22;39868;53.398;6.564;2023-04-03T06:17:05;4.20;66.80
53962;DHT22;39868;53.398;6.564;2023-04-03T06:19:33;4.30;66.90
53962;DHT22;39868;53.398;6.564;2023-04-03T06:22:00;4.30;66.80
53962;DHT22;39868;53.398;6.564;2023-04-03T06:24:29;4.40;66.90
53962;DHT22;39868;53.398;6.564;2023-04-03T06:26:57;4.50;67.00
53962;DHT22;39868;53.398;6.564;2023-04-03T06:29:24;4.60;67.00
53962;DHT22;39868;53.398;6.564;2023-04-03T06:31:51;4.70;67.10
53962;DHT22;39868;53.398;6.564;2023-04-03T06:34:19;4.70;67.20
53962;DHT22;39868;53.398;6.564;2023-04-03T06:36:47;4.80;67.20
53962;DHT22;39868;53.398;6.564;2023-04-03T06:39:17;4.90;67.20
53962;DHT22;39868;53.398;6.564;2023-04-03T06:41:44;5.00;67.30
53962;DHT22;39868;53.398;6.564;2023-04-03T06:44:12;5.00;67.30
53962;DHT22;39868;53.398;6.564;2023-04-03T06:46:40;5.10;67.20
53962;DHT22;39868;53.398;6.564;2023-04-03T06:49:07;5.20;67.30
53962;DHT22;39868;53.398;6.564;2023-04-03T06:51:34;5.30;67.30
53962;DHT22;39868;53.398;6.564;2023-04-03T06:54:02;5.30;67.30
53962;DHT22;39868;53.398;6.564;2023-04-03T06:56:30;5.40;67.30
53962;DHT22;39868;53.398;6.564;2023-04-03T06:58:57;5.50;67.30
53962;DHT22;39868;53.398;6.564;2023-04-03T07:01:26;5.60;67.40
53962;DHT22;39868;53.398;6.564;2023-04-03T07:03:54;5.70;67.40
53962;DHT22;39868;53.398;6.564;2023-04-03T07:06:22;5.80;67.50
53962;DHT22;39868;53.398;6.564;2023-04-03T07:08:49;5.90;67.50
53962;DHT22;39868;53.398;6.564;2023-04-03T07:11:17;6.00;67.50
53962;DHT22;39868;53.398;6.564;2023-04-03T07:13:44;6.10;67.40
53962;DHT22;39868;53.398;6.564;2023-04-03T07:16:11;6.30;67.40
53962;DHT22;39868;53.398;6.564;2023-04-03T07:18:39;6.40;67.40
53962;DHT22;39868;53.398;6.564;2023-04-03T07:21:06;6.60;67.30
53962;DHT22;39868;53.398;6.564;2023-04-03T07:23:34;6.80;67.20
53962;DHT22;39868;53.398;6.564;2023-04-03T07:26:01;7.10;67.20
53962;DHT22;39868;53.398;6.564;2023-04-03T07:28:28;7.20;67.20
53962;DHT22;39868;53.398;6.564;2023-04-03T07:31:01;7.40;67.20
53962;DHT22;39868;53.398;6.564;2023-04-03T07:33:29;7.60;67.10
53962;DHT22;39868;53.398;6.564;2023-04-03T07:35:56;7.80;67.40
53962;DHT22;39868;53.398;6.564;2023-04-03T07:38:24;7.80;67.50
53962;DHT22;39868;53.398;6.564;2023-04-03T07:40:51;7.90;67.50
53962;DHT22;39868;53.398;6.564;2023-04-03T07:43:20;7.90;67.30
53962;DHT22;39868;53.398;6.564;2023-04-03T07:45:48;8.00;67.10
53962;DHT22;39868;53.398;6.564;2023-04-03T07:48:19;8.00;66.90
53962;DHT22;39868;53.398;6.564;2023-04-03T07:50:47;8.00;66.70
53962;DHT22;39868;53.398;6.564;2023-04-03T07:53:14;8.10;66.60
53962;DHT22;39868;53.398;6.564;2023-04-03T07:55:41;8.10;66.50
53962;DHT22;39868;53.398;6.564;2023-04-03T07:58:12;8.20;67.00
53962;DHT22;39868;53.398;6.564;2023-04-03T08:00:40;8.30;66.30
53962;DHT22;39868;53.398;6.564;2023-04-03T08:03:08;8.50;65.90
53962;DHT22;39868;53.398;6.564;2023-04-03T08:05:38;8.70;65.90
53962;DHT22;39868;53.398;6.564;2023-04-03T08:08:06;8.80;65.60
53962;DHT22;39868;53.398;6.564;2023-04-03T08:10:33;9.00;65.50
53962;DHT22;39868;53.398;6.564;2023-04-03T08:13:01;9.20;65.60
53962;DHT22;39868;53.398;6.564;2023-04-03T08:15:29;9.20;65.80
53962;DHT22;39868;53.398;6.564;2023-04-03T08:17:58;9.40;65.70
53962;DHT22;39868;53.398;6.564;2023-04-03T08:20:25;9.50;65.60
53962;DHT22;39868;53.398;6.564;2023-04-03T08:22:53;9.70;65.70
53962;DHT22;39868;53.398;6.564;2023-04-03T08:25:20;9.90;65.90
53962;DHT22;39868;53.398;6.564;2023-04-03T08:27:47;10.10;65.80
53962;DHT22;39868;53.398;6.564;2023-04-03T08:30:14;10.60;65.20
53962;DHT22;39868;53.398;6.564;2023-04-03T08:32:42;11.10;64.60
53962;DHT22;39868;53.398;6.564;2023-04-03T08:35:10;11.50;64.60
53962;DHT22;39868;53.398;6.564;2023-04-03T08:37:37;11.50;64.60
53962;DHT22;39868;53.398;6.564;2023-04-03T08:40:06;11.60;64.50
53962;DHT22;39868;53.398;6.564;2023-04-03T08:47:38;12.40;63.30
53962;DHT22;39868;53.398;6.564;2023-04-03T08:50:06;12.70;62.70
53962;DHT22;39868;53.398;6.564;2023-04-03T08:52:41;13.10;62.40
53962;DHT22;39868;53.398;6.564;2023-04-03T08:57:49;13.10;62.70
53962;DHT22;39868;53.398;6.564;2023-04-03T09:00:19;13.20;62.60
53962;DHT22;39868;53.398;6.564;2023-04-03T09:02:48;13.40;62.60
53962;DHT22;39868;53.398;6.564;2023-04-03T09:05:18;13.40;62.60
53962;DHT22;39868;53.398;6.564;2023-04-03T09:07:52;13.50;62.40
53962;DHT22;39868;53.398;6.564;2023-04-03T09:10:23;13.50;62.40
53962;DHT22;39868;53.398;6.564;2023-04-03T09:12:53;13.60;62.80
53962;DHT22;39868;53.398;6.564;2023-04-03T09:15:23;13.50;62.70
53962;DHT22;39868;53.398;6.564;2023-04-03T09:20:44;13.60;61.80
53962;DHT22;39868;53.398;6.564;2023-04-03T09:23:24;13.50;61.70
53962;DHT22;39868;53.398;6.564;2023-04-03T09:25:54;13.50;61.90
53962;DHT22;39868;53.398;6.564;2023-04-03T09:28:24;13.50;61.50
53962;DHT22;39868;53.398;6.564;2023-04-03T09:30:53;13.40;61.20
53962;DHT22;39868;53.398;6.564;2023-04-03T09:33:20;13.40;60.80
53962;DHT22;39868;53.398;6.564;2023-04-03T09:35:49;13.30;60.10
53962;DHT22;39868;53.398;6.564;2023-04-03T09:38:20;13.20;59.50
53962;DHT22;39868;53.398;6.564;2023-04-03T09:40:49;13.20;60.00
53962;DHT22;39868;53.398;6.564;2023-04-03T09:43:19;13.10;60.10
53962;DHT22;39868;53.398;6.564;2023-04-03T09:45:47;13.10;60.00
53962;DHT22;39868;53.398;6.564;2023-04-03T09:48:15;13.00;59.60
53962;DHT22;39868;53.398;6.564;2023-04-03T09:53:39;13.00;59.60
53962;DHT22;39868;53.398;6.564;2023-04-03T09:58:44;13.00;59.70
53962;DHT22;39868;53.398;6.564;2023-04-03T10:01:29;13.00;59.40
53962;DHT22;39868;53.398;6.564;2023-04-03T10:04:17;13.00;58.90
53962;DHT22;39868;53.398;6.564;2023-04-03T10:06:45;13.00;58.90
53962;DHT22;39868;53.398;6.564;2023-04-03T10:12:11;13.10;59.00
53962;DHT22;39868;53.398;6.564;2023-04-03T10:14:40;13.10;58.20
53962;DHT22;39868;53.398;6.564;2023-04-03T10:17:46;13.10;58.90
53962;DHT22;39868;53.398;6.564;2023-04-03T10:20:05;13.10;58.50
53962;DHT22;39868;53.398;6.564;2023-04-03T10:22:43;13.20;58.20
53962;DHT22;39868;53.398;6.564;2023-04-03T10:25:21;13.20;58.10
53962;DHT22;39868;53.398;6.564;2023-04-03T10:44:15;13.40;55.30
53962;DHT22;39868;53.398;6.564;2023-04-03T10:46:45;13.40;55.20
53962;DHT22;39868;53.398;6.564;2023-04-03T10:49:58;13.40;55.20
53962;DHT22;39868;53.398;6.564;2023-04-03T10:52:17;13.40;52.70
53962;DHT22;39868;53.398;6.564;2023-04-03T10:57:16;13.40;52.80
53962;DHT22;39868;53.398;6.564;2023-04-03T11:04:42;13.50;52.70
53962;DHT22;39868;53.398;6.564;2023-04-03T11:07:17;13.50;52.50
53962;DHT22;39868;53.398;6.564;2023-04-03T11:09:46;13.60;52.70
53962;DHT22;39868;53.398;6.564;2023-04-03T11:12:23;13.60;53.40
53962;DHT22;39868;53.398;6.564;2023-04-03T11:14:52;13.70;51.60
53962;DHT22;39868;53.398;6.564;2023-04-03T11:17:24;13.70;52.60
53962;DHT22;39868;53.398;6.564;2023-04-03T11:22:41;13.80;51.70
53962;DHT22;39868;53.398;6.564;2023-04-03T11:27:55;14.00;52.20
53962;DHT22;39868;53.398;6.564;2023-04-03T11:35:44;14.10;51.90
53962;DHT22;39868;53.398;6.564;2023-04-03T11:41:02;14.30;50.90
53962;DHT22;39868;53.398;6.564;2023-04-03T11:43:30;14.30;51.60
53962;DHT22;39868;53.398;6.564;2023-04-03T11:45:59;14.40;51.20
53962;DHT22;39868;53.398;6.564;2023-04-03T11:50:59;14.50;51.20
53962;DHT22;39868;53.398;6.564;2023-04-03T11:55:55;14.70;50.40
53962;DHT22;39868;53.398;6.564;2023-04-03T11:58:24;14.70;50.90
53962;DHT22;39868;53.398;6.564;2023-04-03T12:08:36;15.10;50.60
53962;DHT22;39868;53.398;6.564;2023-04-03T12:13:41;15.30;50.60
53962;DHT22;39868;53.398;6.564;2023-04-03T12:18:59;15.50;51.20
53962;DHT22;39868;53.398;6.564;2023-04-03T12:23:58;15.70;49.90
53962;DHT22;39868;53.398;6.564;2023-04-03T12:26:28;15.80;48.90
53962;DHT22;39868;53.398;6.564;2023-04-03T12:29:15;15.90;49.30
53962;DHT22;39868;53.398;6.564;2023-04-03T12:32:32;15.90;49.00
53962;DHT22;39868;53.398;6.564;2023-04-03T12:45:51;15.80;42.00
53962;DHT22;39868;53.398;6.564;2023-04-03T12:48:22;15.70;42.90
53962;DHT22;39868;53.398;6.564;2023-04-03T12:50:51;15.50;41.40
53962;DHT22;39868;53.398;6.564;2023-04-03T12:55:47;15.10;43.40
53962;DHT22;39868;53.398;6.564;2023-04-03T12:58:22;15.00;41.80
53962;DHT22;39868;53.398;6.564;2023-04-03T13:03:37;14.60;39.40
53962;DHT22;39868;53.398;6.564;2023-04-03T13:06:05;14.40;40.00
53962;DHT22;39868;53.398;6.564;2023-04-03T13:08:32;14.10;41.50
53962;DHT22;39868;53.398;6.564;2023-04-03T13:13:27;13.90;41.90
53962;DHT22;39868;53.398;6.564;2023-04-03T13:15:54;13.80;40.40
53962;DHT22;39868;53.398;6.564;2023-04-03T13:18:23;13.70;41.40
53962;DHT22;39868;53.398;6.564;2023-04-03T13:20:50;13.70;40.50
53962;DHT22;39868;53.398;6.564;2023-04-03T13:23:17;13.60;41.20
53962;DHT22;39868;53.398;6.564;2023-04-03T13:25:47;13.50;41.20
53962;DHT22;39868;53.398;6.564;2023-04-03T13:28:16;13.40;41.80
53962;DHT22;39868;53.398;6.564;2023-04-03T13:33:37;13.30;42.80
53962;DHT22;39868;53.398;6.564;2023-04-03T13:36:39;13.20;43.00
53962;DHT22;39868;53.398;6.564;2023-04-03T13:38:59;13.20;42.10
53962;DHT22;39868;53.398;6.564;2023-04-03T13:41:31;13.10;40.70
53962;DHT22;39868;53.398;6.564;2023-04-03T13:44:14;13.00;42.60
53962;DHT22;39868;53.398;6.564;2023-04-03T13:46:42;13.00;42.10
53962;DHT22;39868;53.398;6.564;2023-04-03T13:49:29;13.00;43.00
53962;DHT22;39868;53.398;6.564;2023-04-03T13:51:56;13.00;42.60
53962;DHT22;39868;53.398;6.564;2023-04-03T13:54:37;12.90;43.50
53962;DHT22;39868;53.398;6.564;2023-04-03T13:57:12;12.80;44.70
53962;DHT22;39868;53.398;6.564;2023-04-03T13:59:40;12.80;43.80
53962;DHT22;39868;53.398;6.564;2023-04-03T14:07:12;12.50;43.40
53962;DHT22;39868;53.398;6.564;2023-04-03T14:09:39;12.40;43.50
53962;DHT22;39868;53.398;6.564;2023-04-03T14:12:08;12.40;43.40
53962;DHT22;39868;53.398;6.564;2023-04-03T14:14:50;12.30;43.10
53962;DHT22;39868;53.398;6.564;2023-04-03T14:17:19;12.20;43.70
53962;DHT22;39868;53.398;6.564;2023-04-03T14:19:51;12.20;45.20
53962;DHT22;39868;53.398;6.564;2023-04-03T14:22:20;12.30;45.10
53962;DHT22;39868;53.398;6.564;2023-04-03T14:24:49;12.50;44.30
53962;DHT22;39868;53.398;6.564;2023-04-03T14:27:24;12.50;43.70
53962;DHT22;39868;53.398;6.564;2023-04-03T14:29:52;12.60;42.10
53962;DHT22;39868;53.398;6.564;2023-04-03T14:32:21;12.50;40.70
53962;DHT22;39868;53.398;6.564;2023-04-03T14:34:49;12.50;41.10
53962;DHT22;39868;53.398;6.564;2023-04-03T14:37:18;12.40;41.40
53962;DHT22;39868;53.398;6.564;2023-04-03T14:39:46;12.40;42.50
53962;DHT22;39868;53.398;6.564;2023-04-03T14:42:15;12.40;42.00
53962;DHT22;39868;53.398;6.564;2023-04-03T14:44:43;12.50;40.90
53962;DHT22;39868;53.398;6.564;2023-04-03T14:47:11;12.50;41.00
53962;DHT22;39868;53.398;6.564;2023-04-03T14:49:56;12.40;38.80
53962;DHT22;39868;53.398;6.564;2023-04-03T14:52:25;12.40;40.60
53962;DHT22;39868;53.398;6.564;2023-04-03T14:54:52;12.50;40.30
53962;DHT22;39868;53.398;6.564;2023-04-03T14:57:20;12.60;40.80
53962;DHT22;39868;53.398;6.564;2023-04-03T14:59:48;12.80;41.20
53962;DHT22;39868;53.398;6.564;2023-04-03T15:02:31;13.00;42.00
53962;DHT22;39868;53.398;6.564;2023-04-03T15:05:00;13.10;39.70
53962;DHT22;39868;53.398;6.564;2023-04-03T15:07:28;13.20;40.70
53962;DHT22;39868;53.398;6.564;2023-04-03T15:09:55;13.20;40.60
53962;DHT22;39868;53.398;6.564;2023-04-03T15:12:23;13.20;40.80
53962;DHT22;39868;53.398;6.564;2023-04-03T15:14:51;13.30;42.10
53962;DHT22;39868;53.398;6.564;2023-04-03T15:17:26;13.40;40.30
53962;DHT22;39868;53.398;6.564;2023-04-03T15:19:54;13.50;40.80
53962;DHT22;39868;53.398;6.564;2023-04-03T15:22:21;13.60;40.40
53962;DHT22;39868;53.398;6.564;2023-04-03T15:24:48;13.70;41.80
53962;DHT22;39868;53.398;6.564;2023-04-03T15:27:15;13.70;41.70
53962;DHT22;39868;53.398;6.564;2023-04-03T15:29:43;13.80;41.20
53962;DHT22;39868;53.398;6.564;2023-04-03T15:32:11;13.80;41.50
53962;DHT22;39868;53.398;6.564;2023-04-03T15:34:39;13.70;42.70
53962;DHT22;39868;53.398;6.564;2023-04-03T15:37:06;13.80;42.00
53962;DHT22;39868;53.398;6.564;2023-04-03T15:39:33;13.70;41.10
53962;DHT22;39868;53.398;6.564;2023-04-03T15:42:00;13.70;42.10
53962;DHT22;39868;53.398;6.564;2023-04-03T15:44:33;13.70;41.50
53962;DHT22;39868;53.398;6.564;2023-04-03T15:47:00;13.70;42.00
53962;DHT22;39868;53.398;6.564;2023-04-03T15:49:28;13.70;41.50
53962;DHT22;39868;53.398;6.564;2023-04-03T15:51:55;13.70;41.60
53962;DHT22;39868;53.398;6.564;2023-04-03T15:54:22;13.70;41.70
53962;DHT22;39868;53.398;6.564;2023-04-03T15:56:51;13.70;42.20
53962;DHT22;39868;53.398;6.564;2023-04-03T15:59:19;13.70;40.10
53962;DHT22;39868;53.398;6.564;2023-04-03T16:01:47;13.70;41.30
53962;DHT22;39868;53.398;6.564;2023-04-03T16:04:14;13.60;40.60
53962;DHT22;39868;53.398;6.564;2023-04-03T16:06:43;13.50;39.50
53962;DHT22;39868;53.398;6.564;2023-04-03T16:09:10;13.30;40.10
53962;DHT22;39868;53.398;6.564;2023-04-03T16:11:38;13.20;40.80
53962;DHT22;39868;53.398;6.564;2023-04-03T16:14:08;13.10;42.20
53962;DHT22;39868;53.398;6.564;2023-04-03T16:16:35;13.00;40.60
53962;DHT22;39868;53.398;6.564;2023-04-03T16:19:03;12.80;41.80
53962;DHT22;39868;53.398;6.564;2023-04-03T16:21:31;12.70;41.90
53962;DHT22;39868;53.398;6.564;2023-04-03T16:23:59;12.60;42.70
53962;DHT22;39868;53.398;6.564;2023-04-03T16:26:26;12.50;43.10
53962;DHT22;39868;53.398;6.564;2023-04-03T16:28:54;12.40;43.30
53962;DHT22;39868;53.398;6.564;2023-04-03T16:31:21;12.30;43.10
53962;DHT22;39868;53.398;6.564;2023-04-03T16:33:49;12.10;43.90
53962;DHT22;39868;53.398;6.564;2023-04-03T16:36:16;12.00;44.10
53962;DHT22;39868;53.398;6.564;2023-04-03T16:38:44;11.80;44.30
53962;DHT22;39868;53.398;6.564;2023-04-03T16:41:11;11.50;44.80
53962;DHT22;39868;53.398;6.564;2023-04-03T16:43:38;11.30;44.30
53962;DHT22;39868;53.398;6.564;2023-04-03T16:46:11;11.10;46.30
53962;DHT22;39868;53.398;6.564;2023-04-03T16:48:38;11.00;46.90
53962;DHT22;39868;53.398;6.564;2023-04-03T16:51:06;10.80;47.60
53962;DHT22;39868;53.398;6.564;2023-04-03T16:53:33;10.70;47.00
53962;DHT22;39868;53.398;6.564;2023-04-03T16:56:00;10.60;48.00
53962;DHT22;39868;53.398;6.564;2023-04-03T16:58:27;10.50;48.80
53962;DHT22;39868;53.398;6.564;2023-04-03T17:00:54;10.30;49.20
53962;DHT22;39868;53.398;6.564;2023-04-03T17:03:22;10.20;49.70
53962;DHT22;39868;53.398;6.564;2023-04-03T17:05:52;10.10;49.40
53962;DHT22;39868;53.398;6.564;2023-04-03T17:08:19;10.10;49.30
53962;DHT22;39868;53.398;6.564;2023-04-03T17:10:47;10.10;50.00
53962;DHT22;39868;53.398;6.564;2023-04-03T17:13:16;10.10;49.50
53962;DHT22;39868;53.398;6.564;2023-04-03T17:15:44;10.10;50.10
53962;DHT22;39868;53.398;6.564;2023-04-03T17:18:11;10.00;51.40
53962;DHT22;39868;53.398;6.564;2023-04-03T17:20:38;9.90;51.60
53962;DHT22;39868;53.398;6.564;2023-04-03T17:23:05;9.90;50.40
53962;DHT22;39868;53.398;6.564;2023-04-03T17:25:33;9.90;50.10
53962;DHT22;39868;53.398;6.564;2023-04-03T17:28:00;9.90;50.20
53962;DHT22;39868;53.398;6.564;2023-04-03T17:30:27;9.80;50.70
53962;DHT22;39868;53.398;6.564;2023-04-03T17:32:54;9.80;52.20
53962;DHT22;39868;53.398;6.564;2023-04-03T17:35:22;9.70;51.20
53962;DHT22;39868;53.398;6.564;2023-04-03T17:37:49;9.70;51.40
53962;DHT22;39868;53.398;6.564;2023-04-03T17:40:16;9.70;52.70
53962;DHT22;39868;53.398;6.564;2023-04-03T17:42:44;9.60;53.90
53962;DHT22;39868;53.398;6.564;2023-04-03T17:45:11;9.50;54.00